East Monroe, Ohio
Current Conditions -  °F | °C
As of 3:11 AM on Monday 24 Nov 2014 (Local Time) from KILN Reporting Station
Overcast Overcast  
Wind Chill: 58°   Ceiling: 2500
Heat Index: 58°   Visibility: 10mi
Dew Point: 53°   Wind: 22mph
Humidity: 84%   Direction: 210°SSW
Pressure: 29.33"   Gusts: 31mph
Location:  39.3503°N, 83.5434°W
Report Text: KILN 240811Z AUTO 21019G27KT 10SM SCT018 BKN025 OVC035 14/12 A2933 RMK AO2 PK WND 23027/0803 T01440117
Loading
Personal Weather Stations






























Interactive Weather Map New forecast layout! Learn more

10-Day Weather Forecast

Advertisements
Track Severe Weather on mobile